Main page
Satellite images 10-day forecastsClimateMarine weather Cyclones Lightning AirportsFAQ Newsletter About
Weather : Europe Africa North America South America Asia Australia-Oceania Others
Languages Contact

Brussels, Belgium

Brussels Airport

latitude: 50-54N, longitude: 004-32E, elevation: 55 m


METAR: EBBR 040420Z 14005KT CAVOK 24/19 Q1016 NOSIG
TAF: EBBR 032300Z 0400/0506 12006KT CAVOK BECMG 0406/0408 24010KT PROB30 TEMPO 0411/0415 TSRA BECMG 0414/0416 30006KT

Time: 06:59 (04:59 UTC)

Current weather observation

The report was made 39 minutes ago, at 04:20 UTC
Wind 5 kt from the Southeast
Temperature 24°C
Humidity 74%
Pressure 1016 hPa
Visibility 10 km or more
no clouds below 1500 m and no cumulonimbus

Change units

Forecast

The report was made 5 hours and 59 minutes ago, at 23:00 UTC
Forecast valid from 04 at 00 UTC to 05 at 06 UTC
Wind 6 kt from the East/Southeast
Visibility 10 km or more
no clouds below 1500 m and no cumulonimbus
Becoming
from 04 at 06 UTC to 04 at 08 UTC
Wind 10 kt from the West/Southwest
Probability 30% :
Temporary
from 04 at 11 UTC to 04 at 15 UTC
thunderstorm, rain
Becoming
from 04 at 14 UTC to 04 at 16 UTC
Wind 6 kt from the West/Northwest
The information on this site is subject to a disclaimer
Weather : Europe Africa North America South America Asia Australia-Oceania Others
Satellite images 10-day forecastsClimateMarine weather Cyclones Lightning AirportsFAQ Languages Contact Newsletter About